sensor_id;sensor_type;location;lat;lon;timestamp;pressure;altitude;pressure_sealevel;temperature;humidity
42169;BME280;27838;43.858;25.974;2023-04-08T00:00:48;101522.34;;;12.09;44.97
42169;BME280;27838;43.858;25.974;2023-04-08T00:03:15;101516.25;;;12.04;45.13
42169;BME280;27838;43.858;25.974;2023-04-08T00:05:41;101527.59;;;12.09;44.69
42169;BME280;27838;43.858;25.974;2023-04-08T00:08:08;101500.53;;;11.99;45.07
42169;BME280;27838;43.858;25.974;2023-04-08T00:10:34;101513.66;;;12.04;44.81
42169;BME280;27838;43.858;25.974;2023-04-08T00:13:01;101500.50;;;11.95;45.01
42169;BME280;27838;43.858;25.974;2023-04-08T00:15:27;101512.72;;;12.00;45.14
42169;BME280;27838;43.858;25.974;2023-04-08T00:17:54;101513.63;;;12.01;44.99
42169;BME280;27838;43.858;25.974;2023-04-08T00:20:22;101518.00;;;12.05;44.91
42169;BME280;27838;43.858;25.974;2023-04-08T00:22:49;101513.63;;;12.05;44.83
42169;BME280;27838;43.858;25.974;2023-04-08T00:25:16;101512.75;;;11.99;44.82
42169;BME280;27838;43.858;25.974;2023-04-08T00:27:42;101515.34;;;11.99;44.57
42169;BME280;27838;43.858;25.974;2023-04-08T00:30:09;101516.19;;;11.98;44.91
42169;BME280;27838;43.858;25.974;2023-04-08T00:32:35;101506.59;;;11.97;45.00
42169;BME280;27838;43.858;25.974;2023-04-08T00:35:02;101514.47;;;12.01;44.75
42169;BME280;27838;43.858;25.974;2023-04-08T00:37:29;101515.38;;;12.06;44.84
42169;BME280;27838;43.858;25.974;2023-04-08T00:39:56;101510.19;;;12.09;44.78
42169;BME280;27838;43.858;25.974;2023-04-08T00:42:23;101511.06;;;12.12;44.72
42169;BME280;27838;43.858;25.974;2023-04-08T00:44:50;101511.06;;;12.10;44.75
42169;BME280;27838;43.858;25.974;2023-04-08T00:47:16;101499.72;;;12.08;44.82
42169;BME280;27838;43.858;25.974;2023-04-08T00:49:43;101510.19;;;12.11;44.99
42169;BME280;27838;43.858;25.974;2023-04-08T00:52:10;101517.16;;;12.11;45.07
42169;BME280;27838;43.858;25.974;2023-04-08T00:54:37;101521.47;;;12.05;45.66
42169;BME280;27838;43.858;25.974;2023-04-08T00:57:05;101524.09;;;12.04;45.69
42169;BME280;27838;43.858;25.974;2023-04-08T00:59:32;101520.63;;;12.09;45.52
42169;BME280;27838;43.858;25.974;2023-04-08T01:02:13;101513.63;;;12.07;45.58
42169;BME280;27838;43.858;25.974;2023-04-08T01:07:46;101509.31;;;12.07;46.03
42169;BME280;27838;43.858;25.974;2023-04-08T01:10:28;101511.03;;;12.08;46.04
42169;BME280;27838;43.858;25.974;2023-04-08T01:12:57;101498.00;;;12.10;45.68
42169;BME280;27838;43.858;25.974;2023-04-08T01:15:25;101501.50;;;12.15;46.22
42169;BME280;27838;43.858;25.974;2023-04-08T01:17:54;101497.16;;;12.13;45.90
42169;BME280;27838;43.858;25.974;2023-04-08T01:20:26;101494.50;;;12.14;45.68
42169;BME280;27838;43.858;25.974;2023-04-08T01:25:53;101508.47;;;12.13;45.87
42169;BME280;27838;43.858;25.974;2023-04-08T01:28:22;101510.19;;;12.14;46.11
42169;BME280;27838;43.858;25.974;2023-04-08T01:30:49;101500.66;;;12.16;45.74
42169;BME280;27838;43.858;25.974;2023-04-08T01:33:17;101499.75;;;12.14;45.54
42169;BME280;27838;43.858;25.974;2023-04-08T01:35:45;101490.13;;;12.08;45.51
42169;BME280;27838;43.858;25.974;2023-04-08T01:38:17;101498.84;;;12.11;45.72
42169;BME280;27838;43.858;25.974;2023-04-08T01:40:46;101506.69;;;12.12;46.00
42169;BME280;27838;43.858;25.974;2023-04-08T01:43:15;101499.72;;;12.08;45.21
42169;BME280;27838;43.858;25.974;2023-04-08T01:45:43;101498.00;;;12.10;45.51
42169;BME280;27838;43.858;25.974;2023-04-08T01:48:12;101511.97;;;12.15;45.79
42169;BME280;27838;43.858;25.974;2023-04-08T01:50:43;101501.47;;;12.11;45.49
42169;BME280;27838;43.858;25.974;2023-04-08T01:53:10;101505.81;;;12.10;45.96
42169;BME280;27838;43.858;25.974;2023-04-08T01:55:39;101497.09;;;12.08;45.69
42169;BME280;27838;43.858;25.974;2023-04-08T01:58:06;101498.00;;;12.13;45.73
42169;BME280;27838;43.858;25.974;2023-04-08T02:00:35;101511.06;;;12.12;45.72
42169;BME280;27838;43.858;25.974;2023-04-08T02:03:04;101509.28;;;12.09;45.76
42169;BME280;27838;43.858;25.974;2023-04-08T02:05:31;101508.41;;;12.07;46.02
42169;BME280;27838;43.858;25.974;2023-04-08T02:07:58;101496.19;;;12.00;45.90
42169;BME280;27838;43.858;25.974;2023-04-08T02:10:25;101500.56;;;12.01;46.39
42169;BME280;27838;43.858;25.974;2023-04-08T02:12:52;101503.16;;;12.01;46.34
42169;BME280;27838;43.858;25.974;2023-04-08T02:15:18;101501.38;;;11.97;46.51
42169;BME280;27838;43.858;25.974;2023-04-08T02:17:48;101493.53;;;11.92;46.42
42169;BME280;27838;43.858;25.974;2023-04-08T02:20:46;101495.25;;;11.92;47.02
42169;BME280;27838;43.858;25.974;2023-04-08T02:23:23;101498.75;;;11.90;46.97
42169;BME280;27838;43.858;25.974;2023-04-08T02:25:52;101495.28;;;11.96;46.71
42169;BME280;27838;43.858;25.974;2023-04-08T02:28:21;101490.06;;;11.98;46.91
42169;BME280;27838;43.858;25.974;2023-04-08T02:30:50;101493.50;;;11.90;47.48
42169;BME280;27838;43.858;25.974;2023-04-08T02:33:19;101490.81;;;11.84;47.62
42169;BME280;27838;43.858;25.974;2023-04-08T02:35:48;101490.81;;;11.84;47.69
42169;BME280;27838;43.858;25.974;2023-04-08T02:38:16;101488.22;;;11.86;47.98
42169;BME280;27838;43.858;25.974;2023-04-08T02:40:43;101489.97;;;11.87;47.84
42169;BME280;27838;43.858;25.974;2023-04-08T02:43:09;101483.88;;;11.86;47.87
42169;BME280;27838;43.858;25.974;2023-04-08T02:45:43;101483.88;;;11.86;47.83
42169;BME280;27838;43.858;25.974;2023-04-08T02:48:10;101477.75;;;11.80;47.91
42169;BME280;27838;43.858;25.974;2023-04-08T02:50:36;101484.72;;;11.82;47.81
42169;BME280;27838;43.858;25.974;2023-04-08T02:53:04;101477.72;;;11.78;48.07
42169;BME280;27838;43.858;25.974;2023-04-08T02:55:30;101492.53;;;11.82;47.74
42169;BME280;27838;43.858;25.974;2023-04-08T02:57:57;101488.19;;;11.81;47.83
42169;BME280;27838;43.858;25.974;2023-04-08T03:00:23;101489.91;;;11.79;47.60
42169;BME280;27838;43.858;25.974;2023-04-08T03:02:50;101490.78;;;11.80;48.08
42169;BME280;27838;43.858;25.974;2023-04-08T03:05:16;101499.44;;;11.76;47.99
42169;BME280;27838;43.858;25.974;2023-04-08T03:07:43;101501.16;;;11.70;48.24
42169;BME280;27838;43.858;25.974;2023-04-08T03:10:10;101488.91;;;11.62;48.64
42169;BME280;27838;43.858;25.974;2023-04-08T03:12:36;101502.84;;;11.65;48.52
42169;BME280;27838;43.858;25.974;2023-04-08T03:15:03;101504.56;;;11.59;48.93
42169;BME280;27838;43.858;25.974;2023-04-08T03:17:30;101497.59;;;11.58;48.78
42169;BME280;27838;43.858;25.974;2023-04-08T03:19:59;101499.34;;;11.62;48.66
42169;BME280;27838;43.858;25.974;2023-04-08T03:22:26;101504.59;;;11.63;48.64
42169;BME280;27838;43.858;25.974;2023-04-08T03:24:52;101505.47;;;11.62;48.61
42169;BME280;27838;43.858;25.974;2023-04-08T03:27:19;101508.09;;;11.64;48.56
42169;BME280;27838;43.858;25.974;2023-04-08T03:29:45;101508.09;;;11.64;48.75
42169;BME280;27838;43.858;25.974;2023-04-08T03:32:12;101516.81;;;11.66;48.44
42169;BME280;27838;43.858;25.974;2023-04-08T03:34:38;101495.81;;;11.53;48.37
42169;BME280;27838;43.858;25.974;2023-04-08T03:37:05;101521.16;;;11.64;48.62
42169;BME280;27838;43.858;25.974;2023-04-08T03:39:32;101509.78;;;11.62;48.20
42169;BME280;27838;43.858;25.974;2023-04-08T03:41:58;101524.66;;;11.67;47.68
42169;BME280;27838;43.858;25.974;2023-04-08T03:44:26;101518.53;;;11.65;46.92
42169;BME280;27838;43.858;25.974;2023-04-08T03:46:52;101526.38;;;11.68;47.62
42169;BME280;27838;43.858;25.974;2023-04-08T03:49:19;101517.69;;;11.68;47.00
42169;BME280;27838;43.858;25.974;2023-04-08T03:51:45;101522.00;;;11.63;47.44
42169;BME280;27838;43.858;25.974;2023-04-08T03:54:12;101519.38;;;11.61;47.74
42169;BME280;27838;43.858;25.974;2023-04-08T03:56:38;101523.72;;;11.61;47.66
42169;BME280;27838;43.858;25.974;2023-04-08T03:59:05;101522.84;;;11.60;47.40
42169;BME280;27838;43.858;25.974;2023-04-08T04:01:32;101523.72;;;11.61;47.37
42169;BME280;27838;43.858;25.974;2023-04-08T04:03:58;101531.56;;;11.61;47.22
42169;BME280;27838;43.858;25.974;2023-04-08T04:06:25;101518.44;;;11.51;47.28
42169;BME280;27838;43.858;25.974;2023-04-08T04:08:52;101519.28;;;11.50;47.50
42169;BME280;27838;43.858;25.974;2023-04-08T04:11:19;101529.75;;;11.53;47.21
42169;BME280;27838;43.858;25.974;2023-04-08T04:13:47;101527.13;;;11.50;47.35
42169;BME280;27838;43.858;25.974;2023-04-08T04:16:13;101531.50;;;11.55;47.57
42169;BME280;27838;43.858;25.974;2023-04-08T04:18:40;101532.38;;;11.53;47.70
42169;BME280;27838;43.858;25.974;2023-04-08T04:21:07;101534.97;;;11.53;47.57
42169;BME280;27838;43.858;25.974;2023-04-08T04:23:33;101541.06;;;11.52;47.62
42169;BME280;27838;43.858;25.974;2023-04-08T04:26:00;101539.28;;;11.48;47.67
42169;BME280;27838;43.858;25.974;2023-04-08T04:28:27;101539.28;;;11.48;47.89
42169;BME280;27838;43.858;25.974;2023-04-08T04:30:53;101544.50;;;11.48;47.93
42169;BME280;27838;43.858;25.974;2023-04-08T04:33:20;101537.53;;;11.47;47.94
42169;BME280;27838;43.858;25.974;2023-04-08T04:35:46;101541.88;;;11.47;48.32
42169;BME280;27838;43.858;25.974;2023-04-08T04:38:13;101540.13;;;11.47;47.94
42169;BME280;27838;43.858;25.974;2023-04-08T04:40:40;101536.63;;;11.45;48.08
42169;BME280;27838;43.858;25.974;2023-04-08T04:43:06;101542.75;;;11.47;47.94
42169;BME280;27838;43.858;25.974;2023-04-08T04:45:33;101553.22;;;11.50;47.88
42169;BME280;27838;43.858;25.974;2023-04-08T04:48:00;101562.81;;;11.53;47.79
42169;BME280;27838;43.858;25.974;2023-04-08T04:50:27;101555.00;;;11.56;47.79
42169;BME280;27838;43.858;25.974;2023-04-08T04:52:54;101560.25;;;11.58;47.93
42169;BME280;27838;43.858;25.974;2023-04-08T04:55:21;101571.56;;;11.60;48.06
42169;BME280;27838;43.858;25.974;2023-04-08T04:57:48;101559.41;;;11.60;47.92
42169;BME280;27838;43.858;25.974;2023-04-08T05:00:14;101547.22;;;11.61;47.83
42169;BME280;27838;43.858;25.974;2023-04-08T05:02:41;101561.22;;;11.67;47.76
42169;BME280;27838;43.858;25.974;2023-04-08T05:05:08;101576.00;;;11.67;48.26
42169;BME280;27838;43.858;25.974;2023-04-08T05:07:35;101575.16;;;11.69;47.70
42169;BME280;27838;43.858;25.974;2023-04-08T05:10:02;101569.88;;;11.65;47.90
42169;BME280;27838;43.858;25.974;2023-04-08T05:12:29;101574.25;;;11.64;47.71
42169;BME280;27838;43.858;25.974;2023-04-08T05:14:58;101570.75;;;11.64;47.75
42169;BME280;27838;43.858;25.974;2023-04-08T05:17:26;101569.06;;;11.69;47.62
42169;BME280;27838;43.858;25.974;2023-04-08T05:19:52;101559.53;;;11.73;47.80
42169;BME280;27838;43.858;25.974;2023-04-08T05:22:19;101542.88;;;11.63;47.55
42169;BME280;27838;43.858;25.974;2023-04-08T05:24:46;101564.72;;;11.69;47.46
42169;BME280;27838;43.858;25.974;2023-04-08T05:27:13;101568.25;;;11.75;47.71
42169;BME280;27838;43.858;25.974;2023-04-08T05:29:39;101556.94;;;11.77;47.70
42169;BME280;27838;43.858;25.974;2023-04-08T05:32:06;101559.59;;;11.82;47.77
42169;BME280;27838;43.858;25.974;2023-04-08T05:34:33;101561.28;;;11.77;47.54
42169;BME280;27838;43.858;25.974;2023-04-08T05:36:59;101565.66;;;11.81;47.65
42169;BME280;27838;43.858;25.974;2023-04-08T05:39:26;101561.31;;;11.83;47.56
42169;BME280;27838;43.858;25.974;2023-04-08T05:41:55;101564.78;;;11.80;47.79
42169;BME280;27838;43.858;25.974;2023-04-08T05:44:27;101560.47;;;11.84;48.47
42169;BME280;27838;43.858;25.974;2023-04-08T05:46:58;101562.25;;;11.86;48.49
42169;BME280;27838;43.858;25.974;2023-04-08T05:49:25;101570.06;;;11.88;48.82
42169;BME280;27838;43.858;25.974;2023-04-08T05:51:51;101571.00;;;11.92;48.99
42169;BME280;27838;43.858;25.974;2023-04-08T05:54:18;101574.56;;;12.00;49.16
42169;BME280;27838;43.858;25.974;2023-04-08T05:56:44;101581.56;;;12.07;48.92
42169;BME280;27838;43.858;25.974;2023-04-08T05:59:13;101574.66;;;12.12;48.98
42169;BME280;27838;43.858;25.974;2023-04-08T06:01:39;101572.91;;;12.14;48.80
42169;BME280;27838;43.858;25.974;2023-04-08T06:04:06;101577.34;;;12.21;48.57
42169;BME280;27838;43.858;25.974;2023-04-08T06:06:32;101575.63;;;12.28;48.10
42169;BME280;27838;43.858;25.974;2023-04-08T06:08:59;101574.81;;;12.34;48.29
42169;BME280;27838;43.858;25.974;2023-04-08T06:11:25;101575.69;;;12.36;48.03
42169;BME280;27838;43.858;25.974;2023-04-08T06:13:52;101587.06;;;12.45;47.79
42169;BME280;27838;43.858;25.974;2023-04-08T06:16:18;101586.25;;;12.56;47.73
42169;BME280;27838;43.858;25.974;2023-04-08T06:18:45;101571.44;;;12.56;47.54
42169;BME280;27838;43.858;25.974;2023-04-08T06:21:11;101588.94;;;12.68;47.10
42169;BME280;27838;43.858;25.974;2023-04-08T06:23:38;101582.03;;;12.78;47.13
42169;BME280;27838;43.858;25.974;2023-04-08T06:26:05;101576.81;;;12.81;46.90
42169;BME280;27838;43.858;25.974;2023-04-08T06:28:32;101580.31;;;12.89;45.65
42169;BME280;27838;43.858;25.974;2023-04-08T06:30:58;101578.63;;;13.00;45.31
42169;BME280;27838;43.858;25.974;2023-04-08T06:33:25;101575.13;;;13.01;45.25
42169;BME280;27838;43.858;25.974;2023-04-08T06:36:00;101577.78;;;13.15;44.87
42169;BME280;27838;43.858;25.974;2023-04-08T06:38:27;101578.72;;;13.28;44.68
42169;BME280;27838;43.858;25.974;2023-04-08T06:40:53;101584.00;;;13.37;44.94
42169;BME280;27838;43.858;25.974;2023-04-08T06:43:20;101578.75;;;13.45;44.42
42169;BME280;27838;43.858;25.974;2023-04-08T06:45:47;101582.25;;;13.33;44.82
42169;BME280;27838;43.858;25.974;2023-04-08T06:48:13;101574.41;;;13.46;44.31
42169;BME280;27838;43.858;25.974;2023-04-08T06:50:41;101582.25;;;13.41;44.11
42169;BME280;27838;43.858;25.974;2023-04-08T06:53:08;101570.94;;;13.53;43.81
42169;BME280;27838;43.858;25.974;2023-04-08T06:55:34;101577.94;;;13.74;44.45
42169;BME280;27838;43.858;25.974;2023-04-08T06:58:01;101578.81;;;13.82;44.11
42169;BME280;27838;43.858;25.974;2023-04-08T07:00:27;101576.19;;;13.74;42.68
42169;BME280;27838;43.858;25.974;2023-04-08T07:02:54;101563.97;;;13.72;42.71
42169;BME280;27838;43.858;25.974;2023-04-08T07:05:21;101574.44;;;13.86;43.26
42169;BME280;27838;43.858;25.974;2023-04-08T07:07:47;101568.31;;;13.87;43.15
42169;BME280;27838;43.858;25.974;2023-04-08T07:10:14;101578.81;;;13.81;42.46
42169;BME280;27838;43.858;25.974;2023-04-08T07:12:41;101581.41;;;13.54;43.36
42169;BME280;27838;43.858;25.974;2023-04-08T07:15:07;101571.81;;;13.70;43.48
42169;BME280;27838;43.858;25.974;2023-04-08T07:17:34;101570.06;;;13.72;43.25
42169;BME280;27838;43.858;25.974;2023-04-08T07:20:01;101578.81;;;13.77;43.30
42169;BME280;27838;43.858;25.974;2023-04-08T07:22:28;101566.56;;;13.76;43.45
42169;BME280;27838;43.858;25.974;2023-04-08T07:24:54;101566.59;;;13.86;43.24
42169;BME280;27838;43.858;25.974;2023-04-08T07:27:21;101570.06;;;13.88;43.21
42169;BME280;27838;43.858;25.974;2023-04-08T07:29:52;101573.56;;;13.93;43.11
42169;BME280;27838;43.858;25.974;2023-04-08T07:32:19;101572.69;;;13.98;42.91
42169;BME280;27838;43.858;25.974;2023-04-08T07:34:46;101572.69;;;14.03;42.58
42169;BME280;27838;43.858;25.974;2023-04-08T07:37:12;101587.53;;;14.04;42.53
42169;BME280;27838;43.858;25.974;2023-04-08T07:39:39;101591.03;;;14.00;42.42
42169;BME280;27838;43.858;25.974;2023-04-08T07:42:06;101591.06;;;13.91;42.93
42169;BME280;27838;43.858;25.974;2023-04-08T07:44:32;101589.28;;;13.96;43.18
42169;BME280;27838;43.858;25.974;2023-04-08T07:46:59;101588.41;;;13.97;42.91
42169;BME280;27838;43.858;25.974;2023-04-08T07:49:25;101598.91;;;14.00;43.50
42169;BME280;27838;43.858;25.974;2023-04-08T07:51:52;101596.28;;;13.97;43.32
42169;BME280;27838;43.858;25.974;2023-04-08T07:54:18;101590.16;;;13.96;43.11
42169;BME280;27838;43.858;25.974;2023-04-08T07:56:45;101591.91;;;14.01;43.34
42169;BME280;27838;43.858;25.974;2023-04-08T07:59:11;101598.00;;;14.04;42.92
42169;BME280;27838;43.858;25.974;2023-04-08T08:01:38;101598.91;;;14.02;42.99
42169;BME280;27838;43.858;25.974;2023-04-08T08:04:05;101591.03;;;14.08;43.34
42169;BME280;27838;43.858;25.974;2023-04-08T08:06:31;101587.53;;;14.10;43.13
42169;BME280;27838;43.858;25.974;2023-04-08T08:08:58;101591.03;;;14.09;43.28
42169;BME280;27838;43.858;25.974;2023-04-08T08:11:25;101584.03;;;14.10;43.06
42169;BME280;27838;43.858;25.974;2023-04-08T08:13:52;101586.66;;;14.18;43.44
42169;BME280;27838;43.858;25.974;2023-04-08T08:16:19;101584.88;;;14.29;43.38
42169;BME280;27838;43.858;25.974;2023-04-08T08:18:46;101591.00;;;14.31;42.90
42169;BME280;27838;43.858;25.974;2023-04-08T08:21:12;101587.50;;;14.37;42.95
42169;BME280;27838;43.858;25.974;2023-04-08T08:23:39;101587.44;;;14.57;43.09
42169;BME280;27838;43.858;25.974;2023-04-08T08:26:07;101591.78;;;14.78;42.95
42169;BME280;27838;43.858;25.974;2023-04-08T08:28:34;101587.34;;;15.00;41.91
42169;BME280;27838;43.858;25.974;2023-04-08T08:31:01;101591.63;;;15.16;41.53
42169;BME280;27838;43.858;25.974;2023-04-08T08:33:30;101575.84;;;15.21;41.40
42169;BME280;27838;43.858;25.974;2023-04-08T08:35:57;101582.72;;;15.40;41.17
42169;BME280;27838;43.858;25.974;2023-04-08T08:38:24;101589.69;;;15.49;41.04
42169;BME280;27838;43.858;25.974;2023-04-08T08:40:56;101585.34;;;15.43;41.14
42169;BME280;27838;43.858;25.974;2023-04-08T08:43:27;101587.91;;;15.48;40.92
42169;BME280;27838;43.858;25.974;2023-04-08T08:45:54;101588.69;;;15.65;40.96
42169;BME280;27838;43.858;25.974;2023-04-08T08:48:20;101584.28;;;15.75;41.19
42169;BME280;27838;43.858;25.974;2023-04-08T08:50:47;101583.41;;;15.68;41.31
42169;BME280;27838;43.858;25.974;2023-04-08T08:53:13;101580.78;;;15.65;41.04
42169;BME280;27838;43.858;25.974;2023-04-08T08:55:40;101589.56;;;15.64;41.20
42169;BME280;27838;43.858;25.974;2023-04-08T08:58:07;101583.47;;;15.64;41.56
42169;BME280;27838;43.858;25.974;2023-04-08T09:00:38;101586.94;;;15.69;41.84
42169;BME280;27838;43.858;25.974;2023-04-08T09:03:23;101586.81;;;15.83;41.29
42169;BME280;27838;43.858;25.974;2023-04-08T09:05:57;101587.66;;;15.88;41.17
42169;BME280;27838;43.858;25.974;2023-04-08T09:08:34;101589.34;;;15.95;41.11
42169;BME280;27838;43.858;25.974;2023-04-08T09:11:16;101592.03;;;15.92;40.93
42169;BME280;27838;43.858;25.974;2023-04-08T09:13:44;101591.97;;;15.95;40.93
42169;BME280;27838;43.858;25.974;2023-04-08T09:16:13;101588.47;;;15.96;40.83
42169;BME280;27838;43.858;25.974;2023-04-08T09:18:42;101580.56;;;16.01;41.10
42169;BME280;27838;43.858;25.974;2023-04-08T09:21:11;101591.06;;;16.01;41.09
42169;BME280;27838;43.858;25.974;2023-04-08T09:23:41;101589.34;;;15.95;40.86
42169;BME280;27838;43.858;25.974;2023-04-08T09:28:38;101599.81;;;16.04;40.94
42169;BME280;27838;43.858;25.974;2023-04-08T09:31:25;101580.44;;;16.13;40.75
42169;BME280;27838;43.858;25.974;2023-04-08T09:33:57;101580.31;;;16.27;40.89
42169;BME280;27838;43.858;25.974;2023-04-08T09:36:25;101588.06;;;16.41;39.65
42169;BME280;27838;43.858;25.974;2023-04-08T09:38:53;101587.88;;;16.58;39.69
42169;BME280;27838;43.858;25.974;2023-04-08T09:41:21;101582.53;;;16.64;39.49
42169;BME280;27838;43.858;25.974;2023-04-08T09:43:55;101583.34;;;16.71;39.17
42169;BME280;27838;43.858;25.974;2023-04-08T09:46:30;101583.22;;;16.82;39.10
42169;BME280;27838;43.858;25.974;2023-04-08T09:51:42;101576.13;;;16.90;39.64
42169;BME280;27838;43.858;25.974;2023-04-08T09:54:18;101576.09;;;16.91;39.16
42169;BME280;27838;43.858;25.974;2023-04-08T09:56:53;101583.97;;;16.93;39.68
42169;BME280;27838;43.858;25.974;2023-04-08T09:59:26;101587.56;;;16.87;39.46
42169;BME280;27838;43.858;25.974;2023-04-08T10:01:58;101592.75;;;16.93;39.19
42169;BME280;27838;43.858;25.974;2023-04-08T10:04:27;101580.47;;;16.94;39.04
42169;BME280;27838;43.858;25.974;2023-04-08T10:06:57;101584.78;;;16.98;40.04
42169;BME280;27838;43.858;25.974;2023-04-08T10:09:26;101590.00;;;17.04;39.76
42169;BME280;27838;43.858;25.974;2023-04-08T10:11:54;101584.31;;;16.64;40.20
42169;BME280;27838;43.858;25.974;2023-04-08T10:14:21;101575.78;;;16.38;40.56
42169;BME280;27838;43.858;25.974;2023-04-08T10:16:47;101587.03;;;16.54;40.09
42169;BME280;27838;43.858;25.974;2023-04-08T10:19:36;101579.91;;;16.64;39.66
42169;BME280;27838;43.858;25.974;2023-04-08T10:27:43;101573.50;;;16.90;39.73
42169;BME280;27838;43.858;25.974;2023-04-08T10:32:59;101573.56;;;16.84;39.61
42169;BME280;27838;43.858;25.974;2023-04-08T10:35:34;101577.19;;;16.70;39.86
42169;BME280;27838;43.858;25.974;2023-04-08T10:38:02;101562.53;;;16.49;39.96
42169;BME280;27838;43.858;25.974;2023-04-08T10:40:34;101566.81;;;16.58;39.77
42169;BME280;27838;43.858;25.974;2023-04-08T10:43:01;101563.19;;;16.68;40.59
42169;BME280;27838;43.858;25.974;2023-04-08T10:45:29;101548.47;;;16.52;39.93
42169;BME280;27838;43.858;25.974;2023-04-08T10:47:56;101562.66;;;16.35;40.11
42169;BME280;27838;43.858;25.974;2023-04-08T10:50:22;101560.16;;;16.26;40.62
42169;BME280;27838;43.858;25.974;2023-04-08T10:52:50;101555.84;;;16.19;40.98
42169;BME280;27838;43.858;25.974;2023-04-08T10:55:25;101560.97;;;16.30;40.71
42169;BME280;27838;43.858;25.974;2023-04-08T10:57:54;101553.06;;;16.34;40.48
42169;BME280;27838;43.858;25.974;2023-04-08T11:00:38;101558.06;;;16.56;40.61
42169;BME280;27838;43.858;25.974;2023-04-08T11:03:08;101550.06;;;16.65;40.00
42169;BME280;27838;43.858;25.974;2023-04-08T11:05:36;101549.28;;;16.57;39.93
42169;BME280;27838;43.858;25.974;2023-04-08T11:08:04;101545.88;;;16.49;39.92
42169;BME280;27838;43.858;25.974;2023-04-08T11:10:36;101547.47;;;16.64;39.81
42169;BME280;27838;43.858;25.974;2023-04-08T11:13:06;101544.03;;;16.57;39.92
42169;BME280;27838;43.858;25.974;2023-04-08T11:15:34;101544.69;;;16.76;39.81
42169;BME280;27838;43.858;25.974;2023-04-08T11:18:02;101541.81;;;16.94;39.10
42169;BME280;27838;43.858;25.974;2023-04-08T11:20:31;101539.75;;;17.18;38.86
42169;BME280;27838;43.858;25.974;2023-04-08T11:23:00;101532.50;;;17.34;38.79
42169;BME280;27838;43.858;25.974;2023-04-08T11:25:27;101526.28;;;17.38;37.91
42169;BME280;27838;43.858;25.974;2023-04-08T11:27:54;101529.03;;;17.30;38.29
42169;BME280;27838;43.858;25.974;2023-04-08T11:30:21;101529.84;;;17.35;38.01
42169;BME280;27838;43.858;25.974;2023-04-08T11:32:48;101531.44;;;17.46;38.16
42169;BME280;27838;43.858;25.974;2023-04-08T11:35:16;101520.97;;;17.40;38.14
42169;BME280;27838;43.858;25.974;2023-04-08T11:37:42;101520.41;;;17.19;39.02
42169;BME280;27838;43.858;25.974;2023-04-08T11:40:12;101526.59;;;17.18;38.54
42169;BME280;27838;43.858;25.974;2023-04-08T11:42:38;101516.09;;;17.15;38.15
42169;BME280;27838;43.858;25.974;2023-04-08T11:45:13;101520.28;;;17.30;38.20
42169;BME280;27838;43.858;25.974;2023-04-08T11:47:40;101505.94;;;17.46;38.01
42169;BME280;27838;43.858;25.974;2023-04-08T11:50:08;101516.25;;;17.60;37.15
42169;BME280;27838;43.858;25.974;2023-04-08T11:52:41;101508.31;;;17.63;37.78
42169;BME280;27838;43.858;25.974;2023-04-08T11:55:09;101503.69;;;17.76;37.35
42169;BME280;27838;43.858;25.974;2023-04-08T11:57:36;101490.34;;;17.84;36.35
42169;BME280;27838;43.858;25.974;2023-04-08T12:00:06;101498.84;;;18.01;36.22
42169;BME280;27838;43.858;25.974;2023-04-08T12:02:33;101495.13;;;18.13;35.73
42169;BME280;27838;43.858;25.974;2023-04-08T12:05:00;101495.31;;;18.04;35.60
42169;BME280;27838;43.858;25.974;2023-04-08T12:07:27;101483.81;;;18.06;35.93
42169;BME280;27838;43.858;25.974;2023-04-08T12:09:54;101481.25;;;18.03;36.14
42169;BME280;27838;43.858;25.974;2023-04-08T12:12:20;101480.66;;;17.87;36.31
42169;BME280;27838;43.858;25.974;2023-04-08T12:14:47;101481.78;;;17.72;36.48
42169;BME280;27838;43.858;25.974;2023-04-08T12:17:13;101486.13;;;17.75;36.96
42169;BME280;27838;43.858;25.974;2023-04-08T12:19:40;101474.63;;;17.79;36.68
42169;BME280;27838;43.858;25.974;2023-04-08T12:22:06;101461.44;;;17.79;36.57
42169;BME280;27838;43.858;25.974;2023-04-08T12:24:33;101478.81;;;17.92;36.49
42169;BME280;27838;43.858;25.974;2023-04-08T12:27:00;101477.06;;;17.91;36.45
42169;BME280;27838;43.858;25.974;2023-04-08T12:29:28;101485.97;;;17.86;36.94
42169;BME280;27838;43.858;25.974;2023-04-08T12:31:55;101482.47;;;17.82;36.92
42169;BME280;27838;43.858;25.974;2023-04-08T12:34:22;101477.28;;;17.78;36.89
42169;BME280;27838;43.858;25.974;2023-04-08T12:36:49;101485.06;;;17.84;37.15
42169;BME280;27838;43.858;25.974;2023-04-08T12:39:15;101487.81;;;17.79;36.87
42169;BME280;27838;43.858;25.974;2023-04-08T12:41:42;101475.00;;;17.56;37.18
42169;BME280;27838;43.858;25.974;2023-04-08T12:44:09;101484.19;;;17.33;37.27
42169;BME280;27838;43.858;25.974;2023-04-08T12:46:35;101476.38;;;17.27;37.33
42169;BME280;27838;43.858;25.974;2023-04-08T12:49:02;101477.44;;;17.15;37.92
42169;BME280;27838;43.858;25.974;2023-04-08T12:51:28;101479.25;;;17.12;37.86
42169;BME280;27838;43.858;25.974;2023-04-08T12:53:55;101480.38;;;16.95;38.46
42169;BME280;27838;43.858;25.974;2023-04-08T12:56:22;101480.47;;;16.88;39.03
42169;BME280;27838;43.858;25.974;2023-04-08T12:58:48;101479.69;;;16.81;39.02
42169;BME280;27838;43.858;25.974;2023-04-08T13:01:15;101473.59;;;16.77;39.24
42169;BME280;27838;43.858;25.974;2023-04-08T13:03:42;101479.72;;;16.76;39.27